In Rescue
 
Open Full Screen Window  High Contrast Mode
Wind Gusting 00 knots
09
May 25, 2022 8:25 PM CDT
Weather Information
Wind Direction
  010 °
Wind Speed
  09 kt (10 mph)
Wind Gust
  00 kt (0 mph)
Altimeter
29.91 in
Visibility
10 SM
Temperature
09° C
48° F
Dewpoint
08° C
46° F
Humidity
94%
1hr Rain Fall
00.00 in.
24hr Rain Fall
00.08 in.
Sky Condition
Overcast @ 1,000 ft
MVFR

METAR KPNM 260125Z AUTO 01009KT 10SM OVC010 09/08 A2991 RMK AO2 TSNO

FAA Disclaimer: The data displayed is for advisory purposes only and is not to be used for flight planning or operations.